Date,TemperatureHighF,TemperatureAvgF,TemperatureLowF,DewpointHighF,DewpointAvgF,DewpointLowF,HumidityHigh,HumidityAvg,HumidityLow,PressureMaxIn,PressureMinIn,WindSpeedMaxMPH,WindSpeedAvgMPH,GustSpeedMaxMPH,PrecipitationSumIn
2013-6-1,83.5,77.1,71.6,65.1,43.3,12.2,54,33,1,30.09,30.06,0,0,0,0.00
2013-6-2,85.7,74.9,64.3,66.0,27.3,6.6,53,16,1,30.08,29.94,0,0,0,0.00
2013-6-3,66.6,63.2,60.5,8.4,5.8,3.5,1,1,1,29.98,29.90,0,0,0,0.54
2013-6-4,76.0,65.4,59.4,15.5,7.5,2.8,3,1,1,30.12,29.97,0,0,0,0.00
2013-6-5,80.3,68.5,58.1,61.4,18.2,1.8,54,11,1,30.16,30.05,0,0,0,0.00
2013-6-6,69.8,67.4,64.3,12.3,9.0,6.6,11,2,1,30.06,29.85,0,0,0,0.47
2013-6-7,69.5,65.8,63.5,10.5,7.8,6.0,1,1,1,29.88,29.59,0,0,0,1.56
2013-6-8,84.4,70.6,61.0,50.4,14.0,4.0,33,4,1,30.13,29.85,0,0,0,0.03
2013-6-9,88.6,74.0,61.6,62.2,16.4,4.5,43,4,1,30.19,30.09,0,0,0,0.01
2013-6-10,82.3,69.9,66.8,20.3,11.0,8.6,1,1,1,30.13,29.91,0,0,0,0.78
2013-6-11,85.5,73.6,64.4,64.5,25.3,6.7,50,14,1,29.99,29.93,0,0,0,0.00
2013-6-12,90.4,75.5,59.8,58.4,20.0,3.1,36,7,1,30.01,29.91,0,0,0,0.00
2013-6-13,94.0,77.4,63.9,72.5,26.7,6.3,51,12,1,29.91,29.65,0,0,0,0.14
2013-6-14,80.5,71.7,55.4,61.0,36.4,-0.2,53,30,1,30.04,29.78,0,0,0,0.00
2013-6-15,85.7,70.9,58.0,66.6,27.3,1.5,53,20,1,30.15,30.04,0,0,0,0.00
2013-6-16,87.8,75.3,65.5,63.8,24.7,7.4,46,12,1,30.15,30.04,0,0,0,0.00
2013-6-17,86.0,76.7,70.6,41.1,16.4,11.3,21,2,1,30.07,29.96,0,0,0,0.00
2013-6-18,82.8,69.9,64.6,20.6,10.9,6.9,1,1,1,30.01,29.81,0,0,0,0.58
2013-6-19,81.4,69.8,59.8,23.6,10.9,3.1,13,1,1,30.15,29.92,0,0,0,0.00
2013-6-20,82.3,71.2,61.0,61.7,25.1,4.0,51,16,1,30.27,30.15,0,0,0,0.00
2013-6-21,83.5,70.8,56.3,63.6,31.7,0.5,53,25,1,30.30,30.22,0,0,0,0.00
2013-6-22,82.8,69.9,63.7,30.5,10.9,6.1,16,1,1,30.25,30.15,0,0,0,0.03
2013-6-23,87.1,73.1,61.2,42.4,13.6,4.2,21,2,1,30.25,30.15,0,0,0,0.00
2013-6-24,86.9,74.2,65.9,26.9,14.2,7.8,12,1,1,30.25,30.12,0,0,0,0.19
2013-6-25,90.4,74.6,63.9,46.8,15.4,6.3,24,3,1,30.16,30.04,0,0,0,0.00
2013-6-26,90.9,74.0,64.8,58.9,17.6,6.9,44,5,1,30.07,29.93,0,0,0,0.24
2013-6-27,88.0,75.5,63.5,38.0,15.1,-9.5,18,2,1,29.97,29.76,0,0,0,0.00
2013-6-28,90.5,76.2,66.6,61.5,20.3,8.4,39,6,1,29.79,29.61,0,0,0,0.48
2013-6-29,83.9,72.9,65.2,21.4,13.2,7.2,1,1,1,29.76,29.63,0,0,0,0.15
2013-6-30,85.9,71.1,65.5,23.0,11.8,7.6,3,1,1,29.89,29.75,0,0,0,0.83